Risinger Woods, Louisiana
Current Conditions -  °F | °C
As of 9:53 AM on Thursday 23 Oct 2014 (Local Time) from KDTN Reporting Station
Clear Clear  
Wind Chill: 14°   Ceiling: Unl
Heat Index: 14°   Visibility: 10mi
Dew Point:   Wind: 5mph
Humidity: 74%   Direction: 10°N
Pressure: 30.19"   Gusts: NA
Location:  32.5955°N, 93.8642°W
Report Text: KDTN 231453Z 01004KT 10SM CLR 14/09 A3019 RMK AO2 SLP221 T01390094 51017
Loading
Personal Weather Stations






























Interactive Weather Map
Tropical Storm Tracking
New forecast layout! Learn more

10-Day Weather Forecast

Advertisements
Track Severe Weather on mobile